sensor_id;sensor_type;location;lat;lon;timestamp;temperature;humidity
3944;DHT22;1986;52.546;13.428;2022-12-18T00:01:57;-3.10;99.90
3944;DHT22;1986;52.546;13.428;2022-12-18T00:04:26;-3.00;99.90
3944;DHT22;1986;52.546;13.428;2022-12-18T00:06:54;-2.80;99.90
3944;DHT22;1986;52.546;13.428;2022-12-18T00:09:21;-2.70;99.90
3944;DHT22;1986;52.546;13.428;2022-12-18T00:11:49;-2.70;99.90
3944;DHT22;1986;52.546;13.428;2022-12-18T00:14:18;-2.90;99.90
3944;DHT22;1986;52.546;13.428;2022-12-18T00:16:46;-3.10;99.90
3944;DHT22;1986;52.546;13.428;2022-12-18T00:19:17;-3.00;99.90
3944;DHT22;1986;52.546;13.428;2022-12-18T00:21:47;-3.00;99.90
3944;DHT22;1986;52.546;13.428;2022-12-18T00:24:14;-3.00;99.90
3944;DHT22;1986;52.546;13.428;2022-12-18T00:26:41;-2.90;99.90
3944;DHT22;1986;52.546;13.428;2022-12-18T00:29:12;-3.00;99.90
3944;DHT22;1986;52.546;13.428;2022-12-18T00:31:40;-3.30;99.90
3944;DHT22;1986;52.546;13.428;2022-12-18T00:34:10;-3.40;99.90
3944;DHT22;1986;52.546;13.428;2022-12-18T00:36:37;-3.40;99.90
3944;DHT22;1986;52.546;13.428;2022-12-18T00:39:08;-3.40;99.90
3944;DHT22;1986;52.546;13.428;2022-12-18T00:41:36;-3.40;99.90
3944;DHT22;1986;52.546;13.428;2022-12-18T00:44:22;-3.40;99.90
3944;DHT22;1986;52.546;13.428;2022-12-18T00:46:49;-3.50;99.90
3944;DHT22;1986;52.546;13.428;2022-12-18T00:49:17;-3.50;99.90
3944;DHT22;1986;52.546;13.428;2022-12-18T00:51:44;-3.50;99.90
3944;DHT22;1986;52.546;13.428;2022-12-18T00:54:11;-3.50;99.90
3944;DHT22;1986;52.546;13.428;2022-12-18T00:56:41;-3.50;99.90
3944;DHT22;1986;52.546;13.428;2022-12-18T00:59:08;-3.40;99.90
3944;DHT22;1986;52.546;13.428;2022-12-18T01:01:37;-3.40;99.90
3944;DHT22;1986;52.546;13.428;2022-12-18T01:04:04;-3.30;99.90
3944;DHT22;1986;52.546;13.428;2022-12-18T01:06:31;-3.30;99.90
3944;DHT22;1986;52.546;13.428;2022-12-18T01:08:58;-3.40;99.90
3944;DHT22;1986;52.546;13.428;2022-12-18T01:11:25;-3.60;99.90
3944;DHT22;1986;52.546;13.428;2022-12-18T01:13:52;-3.60;99.90
3944;DHT22;1986;52.546;13.428;2022-12-18T01:16:20;-3.60;99.90
3944;DHT22;1986;52.546;13.428;2022-12-18T01:18:51;-3.70;99.90
3944;DHT22;1986;52.546;13.428;2022-12-18T01:21:18;-3.80;99.90
3944;DHT22;1986;52.546;13.428;2022-12-18T01:23:45;-3.70;99.90
3944;DHT22;1986;52.546;13.428;2022-12-18T01:26:14;-3.70;99.90
3944;DHT22;1986;52.546;13.428;2022-12-18T01:28:42;-3.80;99.90
3944;DHT22;1986;52.546;13.428;2022-12-18T01:31:12;-3.80;99.90
3944;DHT22;1986;52.546;13.428;2022-12-18T01:33:40;-3.80;99.90
3944;DHT22;1986;52.546;13.428;2022-12-18T01:36:14;-4.00;99.90
3944;DHT22;1986;52.546;13.428;2022-12-18T01:38:42;-3.90;99.90
3944;DHT22;1986;52.546;13.428;2022-12-18T01:41:10;-3.90;99.90
3944;DHT22;1986;52.546;13.428;2022-12-18T01:43:42;-3.80;99.90
3944;DHT22;1986;52.546;13.428;2022-12-18T01:46:10;-3.80;99.90
3944;DHT22;1986;52.546;13.428;2022-12-18T01:48:37;-3.70;99.90
3944;DHT22;1986;52.546;13.428;2022-12-18T01:51:08;-3.70;99.90
3944;DHT22;1986;52.546;13.428;2022-12-18T01:53:37;-3.70;99.90
3944;DHT22;1986;52.546;13.428;2022-12-18T01:56:04;-3.70;99.90
3944;DHT22;1986;52.546;13.428;2022-12-18T01:58:37;-4.00;99.90
3944;DHT22;1986;52.546;13.428;2022-12-18T02:01:07;-4.00;99.90
3944;DHT22;1986;52.546;13.428;2022-12-18T02:03:34;-4.00;99.90
3944;DHT22;1986;52.546;13.428;2022-12-18T02:06:09;-4.00;99.90
3944;DHT22;1986;52.546;13.428;2022-12-18T02:08:48;-3.90;99.90
3944;DHT22;1986;52.546;13.428;2022-12-18T02:11:30;-3.90;99.90
3944;DHT22;1986;52.546;13.428;2022-12-18T02:14:06;-4.00;99.90
3944;DHT22;1986;52.546;13.428;2022-12-18T02:16:42;-3.90;99.90
3944;DHT22;1986;52.546;13.428;2022-12-18T02:19:20;-3.80;99.90
3944;DHT22;1986;52.546;13.428;2022-12-18T02:21:55;-3.70;99.90
3944;DHT22;1986;52.546;13.428;2022-12-18T02:24:33;-3.80;99.90
3944;DHT22;1986;52.546;13.428;2022-12-18T02:27:05;-3.80;99.90
3944;DHT22;1986;52.546;13.428;2022-12-18T02:29:37;-3.90;99.90
3944;DHT22;1986;52.546;13.428;2022-12-18T02:32:14;-3.90;99.90
3944;DHT22;1986;52.546;13.428;2022-12-18T02:34:44;-3.80;99.90
3944;DHT22;1986;52.546;13.428;2022-12-18T02:37:15;-3.90;99.90
3944;DHT22;1986;52.546;13.428;2022-12-18T02:39:47;-4.00;99.90
3944;DHT22;1986;52.546;13.428;2022-12-18T02:42:18;-3.90;99.90
3944;DHT22;1986;52.546;13.428;2022-12-18T02:44:47;-3.80;99.90
3944;DHT22;1986;52.546;13.428;2022-12-18T02:47:17;-4.00;99.90
3944;DHT22;1986;52.546;13.428;2022-12-18T02:49:52;-3.90;99.90
3944;DHT22;1986;52.546;13.428;2022-12-18T02:52:26;-3.80;99.90
3944;DHT22;1986;52.546;13.428;2022-12-18T02:55:07;-3.90;99.90
3944;DHT22;1986;52.546;13.428;2022-12-18T02:57:42;-3.80;99.90
3944;DHT22;1986;52.546;13.428;2022-12-18T03:00:13;-3.80;99.90
3944;DHT22;1986;52.546;13.428;2022-12-18T03:02:48;-3.70;99.90
3944;DHT22;1986;52.546;13.428;2022-12-18T03:05:20;-3.80;99.90
3944;DHT22;1986;52.546;13.428;2022-12-18T03:07:51;-3.70;99.90
3944;DHT22;1986;52.546;13.428;2022-12-18T03:10:25;-3.80;99.90
3944;DHT22;1986;52.546;13.428;2022-12-18T03:12:59;-3.90;99.90
3944;DHT22;1986;52.546;13.428;2022-12-18T03:15:30;-3.90;99.90
3944;DHT22;1986;52.546;13.428;2022-12-18T03:18:04;-4.00;99.90
3944;DHT22;1986;52.546;13.428;2022-12-18T03:20:37;-3.90;99.90
3944;DHT22;1986;52.546;13.428;2022-12-18T03:23:09;-4.00;99.90
3944;DHT22;1986;52.546;13.428;2022-12-18T03:25:41;-3.90;99.90
3944;DHT22;1986;52.546;13.428;2022-12-18T03:28:14;-3.90;99.90
3944;DHT22;1986;52.546;13.428;2022-12-18T03:30:46;-4.00;99.90
3944;DHT22;1986;52.546;13.428;2022-12-18T03:33:18;-4.00;99.90
3944;DHT22;1986;52.546;13.428;2022-12-18T03:35:46;-4.10;99.90
3944;DHT22;1986;52.546;13.428;2022-12-18T03:38:13;-4.20;99.90
3944;DHT22;1986;52.546;13.428;2022-12-18T03:40:50;-4.10;99.90
3944;DHT22;1986;52.546;13.428;2022-12-18T03:43:32;-4.20;99.90
3944;DHT22;1986;52.546;13.428;2022-12-18T03:46:04;-4.30;99.90
3944;DHT22;1986;52.546;13.428;2022-12-18T03:48:37;-4.20;99.90
3944;DHT22;1986;52.546;13.428;2022-12-18T03:51:10;-4.10;99.90
3944;DHT22;1986;52.546;13.428;2022-12-18T03:53:43;-4.00;99.90
3944;DHT22;1986;52.546;13.428;2022-12-18T03:56:14;-4.10;99.90
3944;DHT22;1986;52.546;13.428;2022-12-18T03:58:45;-4.20;99.90
3944;DHT22;1986;52.546;13.428;2022-12-18T04:01:15;-4.40;99.90
3944;DHT22;1986;52.546;13.428;2022-12-18T04:03:46;-4.30;99.90
3944;DHT22;1986;52.546;13.428;2022-12-18T04:06:15;-4.50;99.90
3944;DHT22;1986;52.546;13.428;2022-12-18T04:08:43;-4.50;99.90
3944;DHT22;1986;52.546;13.428;2022-12-18T04:11:10;-4.40;99.90
3944;DHT22;1986;52.546;13.428;2022-12-18T04:13:38;-4.40;99.90
3944;DHT22;1986;52.546;13.428;2022-12-18T04:16:09;-4.50;99.90
3944;DHT22;1986;52.546;13.428;2022-12-18T04:18:38;-4.50;99.90
3944;DHT22;1986;52.546;13.428;2022-12-18T04:21:06;-4.50;99.90
3944;DHT22;1986;52.546;13.428;2022-12-18T04:23:32;-4.60;99.90
3944;DHT22;1986;52.546;13.428;2022-12-18T04:25:59;-4.50;99.90
3944;DHT22;1986;52.546;13.428;2022-12-18T04:28:29;-4.50;99.90
3944;DHT22;1986;52.546;13.428;2022-12-18T04:30:56;-4.40;99.90
3944;DHT22;1986;52.546;13.428;2022-12-18T04:33:25;-4.40;99.90
3944;DHT22;1986;52.546;13.428;2022-12-18T04:35:51;-4.30;99.90
3944;DHT22;1986;52.546;13.428;2022-12-18T04:38:18;-4.20;99.90
3944;DHT22;1986;52.546;13.428;2022-12-18T04:40:45;-4.10;99.90
3944;DHT22;1986;52.546;13.428;2022-12-18T04:43:12;-4.30;99.90
3944;DHT22;1986;52.546;13.428;2022-12-18T04:45:40;-4.40;99.90
3944;DHT22;1986;52.546;13.428;2022-12-18T04:48:07;-4.40;99.90
3944;DHT22;1986;52.546;13.428;2022-12-18T04:50:36;-4.40;99.90
3944;DHT22;1986;52.546;13.428;2022-12-18T04:53:03;-4.30;99.90
3944;DHT22;1986;52.546;13.428;2022-12-18T04:55:30;-4.50;99.90
3944;DHT22;1986;52.546;13.428;2022-12-18T04:57:57;-4.50;99.90
3944;DHT22;1986;52.546;13.428;2022-12-18T05:00:24;-4.50;99.90
3944;DHT22;1986;52.546;13.428;2022-12-18T05:02:51;-4.50;99.90
3944;DHT22;1986;52.546;13.428;2022-12-18T05:05:18;-4.60;99.90
3944;DHT22;1986;52.546;13.428;2022-12-18T05:07:46;-4.60;99.90
3944;DHT22;1986;52.546;13.428;2022-12-18T05:10:13;-4.50;99.90
3944;DHT22;1986;52.546;13.428;2022-12-18T05:12:40;-4.60;99.90
3944;DHT22;1986;52.546;13.428;2022-12-18T05:15:23;-4.60;99.90
3944;DHT22;1986;52.546;13.428;2022-12-18T05:17:50;-4.50;99.90
3944;DHT22;1986;52.546;13.428;2022-12-18T05:20:17;-4.50;99.90
3944;DHT22;1986;52.546;13.428;2022-12-18T05:22:46;-4.40;99.90
3944;DHT22;1986;52.546;13.428;2022-12-18T05:25:13;-4.40;99.90
3944;DHT22;1986;52.546;13.428;2022-12-18T05:27:43;-4.40;99.90
3944;DHT22;1986;52.546;13.428;2022-12-18T05:30:11;-4.40;99.90
3944;DHT22;1986;52.546;13.428;2022-12-18T05:32:39;-4.30;99.90
3944;DHT22;1986;52.546;13.428;2022-12-18T05:35:07;-4.30;99.90
3944;DHT22;1986;52.546;13.428;2022-12-18T05:37:35;-4.30;99.90
3944;DHT22;1986;52.546;13.428;2022-12-18T05:40:04;-4.30;99.90
3944;DHT22;1986;52.546;13.428;2022-12-18T05:42:31;-4.50;99.90
3944;DHT22;1986;52.546;13.428;2022-12-18T05:44:58;-4.50;99.90
3944;DHT22;1986;52.546;13.428;2022-12-18T05:47:26;-4.40;99.90
3944;DHT22;1986;52.546;13.428;2022-12-18T05:49:54;-4.40;99.90
3944;DHT22;1986;52.546;13.428;2022-12-18T05:52:21;-4.50;99.90
3944;DHT22;1986;52.546;13.428;2022-12-18T05:54:48;-4.50;99.90
3944;DHT22;1986;52.546;13.428;2022-12-18T05:57:16;-4.60;99.90
3944;DHT22;1986;52.546;13.428;2022-12-18T05:59:43;-4.40;99.90
3944;DHT22;1986;52.546;13.428;2022-12-18T06:02:10;-4.40;99.90
3944;DHT22;1986;52.546;13.428;2022-12-18T06:04:37;-4.20;99.90
3944;DHT22;1986;52.546;13.428;2022-12-18T06:07:04;-4.20;99.90
3944;DHT22;1986;52.546;13.428;2022-12-18T06:09:31;-4.10;99.90
3944;DHT22;1986;52.546;13.428;2022-12-18T06:11:58;-4.20;99.90
3944;DHT22;1986;52.546;13.428;2022-12-18T06:14:27;-4.30;99.90
3944;DHT22;1986;52.546;13.428;2022-12-18T06:16:54;-4.30;99.90
3944;DHT22;1986;52.546;13.428;2022-12-18T06:19:21;-4.30;99.90
3944;DHT22;1986;52.546;13.428;2022-12-18T06:21:49;-4.20;99.90
3944;DHT22;1986;52.546;13.428;2022-12-18T06:24:16;-4.20;99.90
3944;DHT22;1986;52.546;13.428;2022-12-18T06:26:43;-4.10;99.90
3944;DHT22;1986;52.546;13.428;2022-12-18T06:29:10;-4.10;99.90
3944;DHT22;1986;52.546;13.428;2022-12-18T06:31:43;-4.00;99.90
3944;DHT22;1986;52.546;13.428;2022-12-18T06:34:12;-4.00;99.90
3944;DHT22;1986;52.546;13.428;2022-12-18T06:36:38;-4.20;99.90
3944;DHT22;1986;52.546;13.428;2022-12-18T06:39:05;-4.20;99.90
3944;DHT22;1986;52.546;13.428;2022-12-18T06:41:32;-4.10;99.90
3944;DHT22;1986;52.546;13.428;2022-12-18T06:43:59;-4.00;99.90
3944;DHT22;1986;52.546;13.428;2022-12-18T06:46:26;-4.00;99.90
3944;DHT22;1986;52.546;13.428;2022-12-18T06:48:55;-4.10;99.90
3944;DHT22;1986;52.546;13.428;2022-12-18T06:51:23;-4.10;99.90
3944;DHT22;1986;52.546;13.428;2022-12-18T06:53:50;-4.10;99.90
3944;DHT22;1986;52.546;13.428;2022-12-18T06:56:20;-4.20;99.90
3944;DHT22;1986;52.546;13.428;2022-12-18T06:58:49;-4.20;99.90
3944;DHT22;1986;52.546;13.428;2022-12-18T07:01:16;-4.20;99.90
3944;DHT22;1986;52.546;13.428;2022-12-18T07:03:43;-4.20;99.90
3944;DHT22;1986;52.546;13.428;2022-12-18T07:06:16;-4.30;99.90
3944;DHT22;1986;52.546;13.428;2022-12-18T07:08:46;-4.30;99.90
3944;DHT22;1986;52.546;13.428;2022-12-18T07:11:13;-4.30;99.90
3944;DHT22;1986;52.546;13.428;2022-12-18T07:13:44;-4.30;99.90
3944;DHT22;1986;52.546;13.428;2022-12-18T07:16:12;-4.40;99.90
3944;DHT22;1986;52.546;13.428;2022-12-18T07:18:40;-4.30;99.90
3944;DHT22;1986;52.546;13.428;2022-12-18T07:21:08;-4.40;99.90
3944;DHT22;1986;52.546;13.428;2022-12-18T07:23:37;-4.40;99.90
3944;DHT22;1986;52.546;13.428;2022-12-18T07:26:06;-4.40;99.90
3944;DHT22;1986;52.546;13.428;2022-12-18T07:28:34;-4.30;99.90
3944;DHT22;1986;52.546;13.428;2022-12-18T07:31:03;-4.40;99.90
3944;DHT22;1986;52.546;13.428;2022-12-18T07:33:32;-4.30;99.90
3944;DHT22;1986;52.546;13.428;2022-12-18T07:35:59;-4.20;99.90
3944;DHT22;1986;52.546;13.428;2022-12-18T07:38:26;-4.10;99.90
3944;DHT22;1986;52.546;13.428;2022-12-18T07:40:59;-4.00;99.90
3944;DHT22;1986;52.546;13.428;2022-12-18T07:43:26;-4.00;99.90
3944;DHT22;1986;52.546;13.428;2022-12-18T07:45:53;-4.10;99.90
3944;DHT22;1986;52.546;13.428;2022-12-18T07:48:20;-4.00;99.90
3944;DHT22;1986;52.546;13.428;2022-12-18T07:50:47;-4.00;99.90
3944;DHT22;1986;52.546;13.428;2022-12-18T07:53:14;-3.90;99.90
3944;DHT22;1986;52.546;13.428;2022-12-18T07:55:43;-4.00;99.90
3944;DHT22;1986;52.546;13.428;2022-12-18T07:58:11;-4.00;99.90
3944;DHT22;1986;52.546;13.428;2022-12-18T08:00:38;-4.10;99.90
3944;DHT22;1986;52.546;13.428;2022-12-18T08:03:05;-4.20;99.90
3944;DHT22;1986;52.546;13.428;2022-12-18T08:05:32;-4.10;99.90
3944;DHT22;1986;52.546;13.428;2022-12-18T08:07:59;-4.00;99.90
3944;DHT22;1986;52.546;13.428;2022-12-18T08:10:26;-4.00;99.90
3944;DHT22;1986;52.546;13.428;2022-12-18T08:12:53;-3.90;99.90
3944;DHT22;1986;52.546;13.428;2022-12-18T08:15:21;-3.90;99.90
3944;DHT22;1986;52.546;13.428;2022-12-18T08:17:48;-4.00;99.90
3944;DHT22;1986;52.546;13.428;2022-12-18T08:20:15;-4.10;99.90
3944;DHT22;1986;52.546;13.428;2022-12-18T08:22:44;-4.20;99.90
3944;DHT22;1986;52.546;13.428;2022-12-18T08:25:14;-4.10;99.90
3944;DHT22;1986;52.546;13.428;2022-12-18T08:27:43;-4.00;99.90
3944;DHT22;1986;52.546;13.428;2022-12-18T08:30:11;-4.00;99.90
3944;DHT22;1986;52.546;13.428;2022-12-18T08:32:39;-3.90;99.90
3944;DHT22;1986;52.546;13.428;2022-12-18T08:35:07;-4.10;99.90
3944;DHT22;1986;52.546;13.428;2022-12-18T08:37:34;-4.10;99.90
3944;DHT22;1986;52.546;13.428;2022-12-18T08:40:01;-4.10;99.90
3944;DHT22;1986;52.546;13.428;2022-12-18T08:42:28;-4.10;99.90
3944;DHT22;1986;52.546;13.428;2022-12-18T08:45:12;-4.00;99.90
3944;DHT22;1986;52.546;13.428;2022-12-18T08:47:43;-3.90;99.90
3944;DHT22;1986;52.546;13.428;2022-12-18T08:50:10;-4.10;99.90
3944;DHT22;1986;52.546;13.428;2022-12-18T08:52:37;-4.10;99.90
3944;DHT22;1986;52.546;13.428;2022-12-18T08:55:05;-4.00;99.90
3944;DHT22;1986;52.546;13.428;2022-12-18T08:57:32;-3.90;99.90
3944;DHT22;1986;52.546;13.428;2022-12-18T08:59:59;-3.80;99.90
3944;DHT22;1986;52.546;13.428;2022-12-18T09:02:26;-3.90;99.90
3944;DHT22;1986;52.546;13.428;2022-12-18T09:04:54;-3.80;99.90
3944;DHT22;1986;52.546;13.428;2022-12-18T09:07:21;-3.80;99.90
3944;DHT22;1986;52.546;13.428;2022-12-18T09:09:48;-3.80;99.90
3944;DHT22;1986;52.546;13.428;2022-12-18T09:12:15;-3.80;99.90
3944;DHT22;1986;52.546;13.428;2022-12-18T09:14:46;-3.70;99.90
3944;DHT22;1986;52.546;13.428;2022-12-18T09:17:14;-3.70;99.90
3944;DHT22;1986;52.546;13.428;2022-12-18T09:19:42;-3.70;99.90
3944;DHT22;1986;52.546;13.428;2022-12-18T09:22:11;-3.60;99.90
3944;DHT22;1986;52.546;13.428;2022-12-18T09:24:38;-3.60;99.90
3944;DHT22;1986;52.546;13.428;2022-12-18T09:27:04;-3.70;99.90
3944;DHT22;1986;52.546;13.428;2022-12-18T09:29:32;-3.60;99.90
3944;DHT22;1986;52.546;13.428;2022-12-18T09:31:59;-3.70;99.90
3944;DHT22;1986;52.546;13.428;2022-12-18T09:34:26;-3.70;99.90
3944;DHT22;1986;52.546;13.428;2022-12-18T09:36:53;-3.70;99.90
3944;DHT22;1986;52.546;13.428;2022-12-18T09:39:22;-3.60;99.90
3944;DHT22;1986;52.546;13.428;2022-12-18T09:41:51;-3.60;99.90
3944;DHT22;1986;52.546;13.428;2022-12-18T09:44:24;-3.50;99.90
3944;DHT22;1986;52.546;13.428;2022-12-18T09:47:09;-3.60;99.90
3944;DHT22;1986;52.546;13.428;2022-12-18T09:49:40;-3.60;99.90
3944;DHT22;1986;52.546;13.428;2022-12-18T09:52:13;-3.50;99.90
3944;DHT22;1986;52.546;13.428;2022-12-18T09:54:49;-3.40;99.90
3944;DHT22;1986;52.546;13.428;2022-12-18T09:57:19;-3.30;99.90
3944;DHT22;1986;52.546;13.428;2022-12-18T09:59:51;-3.30;99.90
3944;DHT22;1986;52.546;13.428;2022-12-18T10:02:21;-3.30;99.90
3944;DHT22;1986;52.546;13.428;2022-12-18T10:05:02;-3.20;99.90
3944;DHT22;1986;52.546;13.428;2022-12-18T10:07:38;-3.10;99.90
3944;DHT22;1986;52.546;13.428;2022-12-18T10:10:18;-3.20;99.90
3944;DHT22;1986;52.546;13.428;2022-12-18T10:12:54;-3.30;99.90
3944;DHT22;1986;52.546;13.428;2022-12-18T10:15:26;-3.10;99.90
3944;DHT22;1986;52.546;13.428;2022-12-18T10:18:00;-3.00;99.90
3944;DHT22;1986;52.546;13.428;2022-12-18T10:20:33;-2.90;99.90
3944;DHT22;1986;52.546;13.428;2022-12-18T10:23:07;-2.80;99.90
3944;DHT22;1986;52.546;13.428;2022-12-18T10:25:53;-2.90;99.90
3944;DHT22;1986;52.546;13.428;2022-12-18T10:28:22;-2.90;99.90
3944;DHT22;1986;52.546;13.428;2022-12-18T10:30:49;-2.80;99.90
3944;DHT22;1986;52.546;13.428;2022-12-18T10:33:18;-2.70;99.90
3944;DHT22;1986;52.546;13.428;2022-12-18T10:35:57;-2.80;99.90
3944;DHT22;1986;52.546;13.428;2022-12-18T10:38:32;-2.70;99.90
3944;DHT22;1986;52.546;13.428;2022-12-18T10:41:02;-2.60;99.90
3944;DHT22;1986;52.546;13.428;2022-12-18T10:43:34;-2.70;99.90
3944;DHT22;1986;52.546;13.428;2022-12-18T10:46:12;-2.50;99.90
3944;DHT22;1986;52.546;13.428;2022-12-18T10:48:50;-2.50;99.90
3944;DHT22;1986;52.546;13.428;2022-12-18T10:51:23;-2.60;99.90
3944;DHT22;1986;52.546;13.428;2022-12-18T10:53:56;-2.50;99.90
3944;DHT22;1986;52.546;13.428;2022-12-18T10:56:27;-2.60;99.90
3944;DHT22;1986;52.546;13.428;2022-12-18T10:59:08;-2.60;99.90
3944;DHT22;1986;52.546;13.428;2022-12-18T11:01:55;-2.50;99.90
3944;DHT22;1986;52.546;13.428;2022-12-18T11:04:27;-2.40;99.90
3944;DHT22;1986;52.546;13.428;2022-12-18T11:06:56;-2.20;99.90
3944;DHT22;1986;52.546;13.428;2022-12-18T11:09:25;-2.30;99.90
3944;DHT22;1986;52.546;13.428;2022-12-18T11:11:56;-2.20;99.90
3944;DHT22;1986;52.546;13.428;2022-12-18T11:14:28;-2.30;99.90
3944;DHT22;1986;52.546;13.428;2022-12-18T11:16:57;-2.30;99.90
3944;DHT22;1986;52.546;13.428;2022-12-18T11:19:33;-2.30;99.90
3944;DHT22;1986;52.546;13.428;2022-12-18T11:22:02;-2.30;99.90
3944;DHT22;1986;52.546;13.428;2022-12-18T11:24:31;-2.20;99.90
3944;DHT22;1986;52.546;13.428;2022-12-18T11:27:03;-2.30;99.90
3944;DHT22;1986;52.546;13.428;2022-12-18T11:29:34;-2.20;99.90
3944;DHT22;1986;52.546;13.428;2022-12-18T11:32:27;-2.20;99.90
3944;DHT22;1986;52.546;13.428;2022-12-18T11:35:08;-2.10;99.90
3944;DHT22;1986;52.546;13.428;2022-12-18T11:38:02;-2.20;99.90
3944;DHT22;1986;52.546;13.428;2022-12-18T11:40:34;-2.20;99.90
3944;DHT22;1986;52.546;13.428;2022-12-18T11:43:07;-2.10;99.90
3944;DHT22;1986;52.546;13.428;2022-12-18T11:46:00;-2.20;99.90
3944;DHT22;1986;52.546;13.428;2022-12-18T11:48:31;-2.30;99.90
3944;DHT22;1986;52.546;13.428;2022-12-18T11:51:01;-2.10;99.90
3944;DHT22;1986;52.546;13.428;2022-12-18T11:53:31;-2.00;99.90
3944;DHT22;1986;52.546;13.428;2022-12-18T11:56:16;-2.00;99.90
3944;DHT22;1986;52.546;13.428;2022-12-18T11:59:02;-2.10;99.90
3944;DHT22;1986;52.546;13.428;2022-12-18T12:01:39;-2.20;99.90
3944;DHT22;1986;52.546;13.428;2022-12-18T12:07:22;-2.60;99.90
3944;DHT22;1986;52.546;13.428;2022-12-18T12:09:57;-2.50;99.90
3944;DHT22;1986;52.546;13.428;2022-12-18T12:12:34;-2.50;99.90
3944;DHT22;1986;52.546;13.428;2022-12-18T12:15:23;-2.40;99.90
3944;DHT22;1986;52.546;13.428;2022-12-18T12:17:57;-2.40;99.90
3944;DHT22;1986;52.546;13.428;2022-12-18T12:20:37;-2.40;99.90
3944;DHT22;1986;52.546;13.428;2022-12-18T12:23:16;-2.40;99.90
3944;DHT22;1986;52.546;13.428;2022-12-18T12:25:48;-2.40;99.90
3944;DHT22;1986;52.546;13.428;2022-12-18T12:28:28;-2.40;99.90
3944;DHT22;1986;52.546;13.428;2022-12-18T12:31:09;-2.40;99.90
3944;DHT22;1986;52.546;13.428;2022-12-18T12:33:42;-2.30;99.90
3944;DHT22;1986;52.546;13.428;2022-12-18T12:36:17;-2.30;99.90
3944;DHT22;1986;52.546;13.428;2022-12-18T12:38:50;-2.30;99.90
3944;DHT22;1986;52.546;13.428;2022-12-18T12:41:21;-2.20;99.90
3944;DHT22;1986;52.546;13.428;2022-12-18T12:44:14;-2.10;99.90
3944;DHT22;1986;52.546;13.428;2022-12-18T12:46:44;-2.10;99.90
3944;DHT22;1986;52.546;13.428;2022-12-18T12:52:10;-2.10;99.90
3944;DHT22;1986;52.546;13.428;2022-12-18T12:54:37;-2.10;99.90
3944;DHT22;1986;52.546;13.428;2022-12-18T12:57:10;-2.10;99.90
3944;DHT22;1986;52.546;13.428;2022-12-18T12:59:47;-2.20;99.90
3944;DHT22;1986;52.546;13.428;2022-12-18T13:02:21;-2.30;99.90
3944;DHT22;1986;52.546;13.428;2022-12-18T13:07:35;-2.30;99.90
3944;DHT22;1986;52.546;13.428;2022-12-18T13:10:34;-2.40;99.90
3944;DHT22;1986;52.546;13.428;2022-12-18T13:13:03;-2.30;99.90
3944;DHT22;1986;52.546;13.428;2022-12-18T13:15:41;-2.30;99.90
3944;DHT22;1986;52.546;13.428;2022-12-18T13:18:17;-2.40;99.90
3944;DHT22;1986;52.546;13.428;2022-12-18T13:20:46;-2.40;99.90
3944;DHT22;1986;52.546;13.428;2022-12-18T13:23:29;-2.40;99.90
3944;DHT22;1986;52.546;13.428;2022-12-18T13:25:56;-2.30;99.90
3944;DHT22;1986;52.546;13.428;2022-12-18T13:28:49;-2.20;99.90
3944;DHT22;1986;52.546;13.428;2022-12-18T13:34:35;-2.20;99.90
3944;DHT22;1986;52.546;13.428;2022-12-18T13:37:42;-2.20;99.90
3944;DHT22;1986;52.546;13.428;2022-12-18T13:43:31;-2.20;99.90
3944;DHT22;1986;52.546;13.428;2022-12-18T13:46:06;-2.30;99.90
3944;DHT22;1986;52.546;13.428;2022-12-18T13:48:50;-2.50;99.90
3944;DHT22;1986;52.546;13.428;2022-12-18T13:51:20;-3.20;99.90
3944;DHT22;1986;52.546;13.428;2022-12-18T13:53:51;-3.00;99.90
3944;DHT22;1986;52.546;13.428;2022-12-18T13:56:23;-2.90;99.90
3944;DHT22;1986;52.546;13.428;2022-12-18T13:59:13;-3.10;99.90
3944;DHT22;1986;52.546;13.428;2022-12-18T14:01:46;-3.10;99.90
3944;DHT22;1986;52.546;13.428;2022-12-18T14:04:20;-2.90;99.90
3944;DHT22;1986;52.546;13.428;2022-12-18T14:06:54;-3.00;99.90
3944;DHT22;1986;52.546;13.428;2022-12-18T14:09:25;-2.90;99.90
3944;DHT22;1986;52.546;13.428;2022-12-18T14:11:53;-2.90;99.90
3944;DHT22;1986;52.546;13.428;2022-12-18T14:14:44;-3.00;99.90
3944;DHT22;1986;52.546;13.428;2022-12-18T14:17:13;-3.00;99.90
3944;DHT22;1986;52.546;13.428;2022-12-18T14:19:48;-3.00;99.90
3944;DHT22;1986;52.546;13.428;2022-12-18T14:22:19;-3.20;99.90
3944;DHT22;1986;52.546;13.428;2022-12-18T14:25:25;-3.20;99.90
3944;DHT22;1986;52.546;13.428;2022-12-18T14:28:08;-3.20;99.90
3944;DHT22;1986;52.546;13.428;2022-12-18T14:30:41;-3.10;99.90
3944;DHT22;1986;52.546;13.428;2022-12-18T14:33:12;-3.20;99.90
3944;DHT22;1986;52.546;13.428;2022-12-18T14:35:41;-3.10;99.90
3944;DHT22;1986;52.546;13.428;2022-12-18T14:38:30;-3.10;99.90
3944;DHT22;1986;52.546;13.428;2022-12-18T14:40:59;-3.20;99.90
3944;DHT22;1986;52.546;13.428;2022-12-18T14:43:27;-3.20;99.90
3944;DHT22;1986;52.546;13.428;2022-12-18T14:45:55;-3.30;99.90
3944;DHT22;1986;52.546;13.428;2022-12-18T14:48:34;-3.30;99.90
3944;DHT22;1986;52.546;13.428;2022-12-18T14:51:15;-3.40;99.90
3944;DHT22;1986;52.546;13.428;2022-12-18T14:53:46;-3.40;99.90
3944;DHT22;1986;52.546;13.428;2022-12-18T14:56:18;-3.40;99.90
3944;DHT22;1986;52.546;13.428;2022-12-18T14:58:47;-3.30;99.90
3944;DHT22;1986;52.546;13.428;2022-12-18T15:01:28;-3.30;99.90
3944;DHT22;1986;52.546;13.428;2022-12-18T15:04:32;-3.30;99.90
3944;DHT22;1986;52.546;13.428;2022-12-18T15:07:14;-3.30;99.90
3944;DHT22;1986;52.546;13.428;2022-12-18T15:10:03;-3.20;99.90
3944;DHT22;1986;52.546;13.428;2022-12-18T15:12:37;-3.30;99.90
3944;DHT22;1986;52.546;13.428;2022-12-18T15:18:30;-3.30;99.90
3944;DHT22;1986;52.546;13.428;2022-12-18T15:21:06;-3.30;99.90
3944;DHT22;1986;52.546;13.428;2022-12-18T15:23:36;-3.30;99.90
3944;DHT22;1986;52.546;13.428;2022-12-18T15:26:15;-3.20;99.90
3944;DHT22;1986;52.546;13.428;2022-12-18T15:29:19;-3.20;99.90
3944;DHT22;1986;52.546;13.428;2022-12-18T15:31:59;-3.20;99.90
3944;DHT22;1986;52.546;13.428;2022-12-18T15:34:35;-3.30;99.90
3944;DHT22;1986;52.546;13.428;2022-12-18T15:37:04;-3.30;99.90
3944;DHT22;1986;52.546;13.428;2022-12-18T15:39:31;-3.30;99.90
3944;DHT22;1986;52.546;13.428;2022-12-18T15:42:09;-3.30;99.90
3944;DHT22;1986;52.546;13.428;2022-12-18T15:44:54;-3.30;99.90
3944;DHT22;1986;52.546;13.428;2022-12-18T15:47:35;-3.40;99.90
3944;DHT22;1986;52.546;13.428;2022-12-18T15:50:02;-3.50;99.90
3944;DHT22;1986;52.546;13.428;2022-12-18T15:52:36;-3.40;99.90
3944;DHT22;1986;52.546;13.428;2022-12-18T15:55:11;-3.50;99.90
3944;DHT22;1986;52.546;13.428;2022-12-18T15:57:57;-3.60;99.90
3944;DHT22;1986;52.546;13.428;2022-12-18T16:00:26;-3.60;99.90
3944;DHT22;1986;52.546;13.428;2022-12-18T16:02:54;-3.60;99.90
3944;DHT22;1986;52.546;13.428;2022-12-18T16:05:29;-3.60;99.90
3944;DHT22;1986;52.546;13.428;2022-12-18T16:08:14;-3.70;99.90
3944;DHT22;1986;52.546;13.428;2022-12-18T16:11:05;-3.60;99.90
3944;DHT22;1986;52.546;13.428;2022-12-18T16:13:33;-3.60;99.90
3944;DHT22;1986;52.546;13.428;2022-12-18T16:16:00;-3.60;99.90
3944;DHT22;1986;52.546;13.428;2022-12-18T16:18:28;-3.70;99.90
3944;DHT22;1986;52.546;13.428;2022-12-18T16:21:08;-3.60;99.90
3944;DHT22;1986;52.546;13.428;2022-12-18T16:23:35;-3.60;99.90
3944;DHT22;1986;52.546;13.428;2022-12-18T16:26:02;-3.60;99.90
3944;DHT22;1986;52.546;13.428;2022-12-18T16:28:30;-3.50;99.90
3944;DHT22;1986;52.546;13.428;2022-12-18T16:31:04;-3.60;99.90
3944;DHT22;1986;52.546;13.428;2022-12-18T16:33:31;-3.60;99.90